Time;durP1;ratioP1;P1;durP2;ratioP2;P2;SDS_P1;SDS_P2;PMS_P1;PMS_P2;Temp;Humidity;BMP_temperature;BMP_pressure;BME280_temperature;BME280_humidity;BME280_pressure;Samples;Min_cycle;Max_cycle;Signal;HPM_P1;HPM_P2
2021/03/02 08:01:31;;;;;;;110.50;52.43;;;;;;;3.51;100.00;102054.97;20420243;28;7904124;-60
2021/03/02 08:11:36;;;;;;;99.83;48.07;;;;;;;3.65;100.00;102059.28;20723828;28;20233;-63
2021/03/02 08:21:36;;;;;;;87.50;46.17;;;;;;;3.80;100.00;102065.31;20715708;28;20231;-62
2021/03/02 08:31:39;;;;;;;81.67;42.83;;;;;;;3.91;100.00;102058.16;20719796;28;20233;-65
2021/03/02 08:41:43;;;;;;;81.70;44.43;;;;;;;4.26;100.00;102054.31;20717050;28;20230;-63
2021/03/02 08:51:44;;;;;;;75.70;41.53;;;;;;;4.35;100.00;102102.66;20719159;28;20281;-57
2021/03/02 09:01:45;;;;;;;71.47;39.63;;;;;;;4.55;100.00;102076.03;20801844;28;20266;-60
2021/03/02 09:11:49;;;;;;;72.53;41.70;;;;;;;4.57;100.00;102103.31;20741687;28;20309;-65
2021/03/02 09:21:50;;;;;;;69.23;39.50;;;;;;;4.51;100.00;102097.22;20747554;28;20223;-65
2021/03/02 09:31:52;;;;;;;80.60;43.13;;;;;;;4.80;100.00;102099.53;20717943;28;20232;-65
2021/03/02 09:41:53;;;;;;;71.93;39.97;;;;;;;4.87;100.00;102123.25;20738606;28;20928;-65
2021/03/02 09:51:53;;;;;;;66.60;38.80;;;;;;;5.19;100.00;102128.16;20732340;28;20291;-66
2021/03/02 10:01:54;;;;;;;71.47;39.50;;;;;;;4.81;98.96;102053.69;20751034;28;20232;-61
2021/03/02 10:12:12;;;;;;;62.90;37.63;;;;;;;4.86;100.00;102104.72;20736551;28;20236;-66
2021/03/02 10:22:13;;;;;;;63.47;38.03;;;;;;;5.22;99.87;102088.38;20738822;28;20377;-67
2021/03/02 10:32:14;;;;;;;65.60;39.40;;;;;;;5.07;99.36;102073.56;20752218;28;20227;-64
2021/03/02 10:42:18;;;;;;;69.47;41.23;;;;;;;5.04;100.00;102070.13;20712284;28;20764;-63
2021/03/02 10:52:22;;;;;;;57.73;36.97;;;;;;;5.44;99.95;102007.75;20748260;28;20243;-62
2021/03/02 11:02:22;;;;;;;53.17;32.93;;;;;;;5.77;96.29;102043.41;20715127;28;20654;-61
2021/03/02 11:12:23;;;;;;;55.87;35.60;;;;;;;6.03;96.41;102037.69;20731804;28;20243;-66
2021/03/02 11:22:23;;;;;;;52.90;35.03;;;;;;;6.41;95.90;102017.50;20732701;28;20452;-62
2021/03/02 11:32:24;;;;;;;51.67;34.70;;;;;;;6.45;94.54;101992.69;20740914;28;20236;-63
2021/03/02 11:42:25;;;;;;;54.67;34.83;;;;;;;6.79;95.40;102014.06;20741213;28;20338;-59
2021/03/02 11:52:26;;;;;;;48.90;32.90;;;;;;;7.16;93.50;102011.47;20733041;28;20228;-64
2021/03/02 12:02:27;;;;;;;46.17;31.53;;;;;;;7.53;91.37;102004.34;20709449;28;20244;-63
2021/03/02 12:12:27;;;;;;;45.97;32.07;;;;;;;7.67;92.05;102000.50;20714950;28;20225;-64
2021/03/02 12:22:28;;;;;;;45.80;31.67;;;;;;;7.89;89.79;101980.41;20745016;28;20666;-62
2021/03/02 12:32:28;;;;;;;40.70;28.67;;;;;;;8.25;84.82;101990.03;20726316;28;21065;-65
2021/03/02 12:42:29;;;;;;;38.40;27.93;;;;;;;8.60;87.56;101986.41;20732816;28;20225;-62
2021/03/02 12:52:29;;;;;;;42.60;30.10;;;;;;;8.82;84.67;101965.31;20743419;28;20470;-60
2021/03/02 13:02:29;;;;;;;40.93;27.83;;;;;;;9.11;83.81;101968.88;20755251;28;20345;-61
2021/03/02 13:12:30;;;;;;;35.40;25.77;;;;;;;9.19;80.47;101985.47;20728754;28;20232;-64
2021/03/02 13:22:31;;;;;;;41.90;28.77;;;;;;;9.29;82.77;101981.63;20727492;28;20298;-63
2021/03/02 13:32:37;;;;;;;35.13;26.73;;;;;;;9.45;80.15;101972.19;20752579;28;20470;-62
2021/03/02 13:42:40;;;;;;;35.73;25.90;;;;;;;9.55;79.95;101962.94;20720484;28;20767;-63
2021/03/02 13:52:40;;;;;;;31.20;24.20;;;;;;;9.68;79.35;101969.63;20723128;28;20242;-63
2021/03/02 14:02:43;;;;;;;32.77;24.10;;;;;;;9.68;80.34;101937.63;20711747;28;20725;-63
2021/03/02 14:12:44;;;;;;;23.97;17.57;;;;;;;9.67;75.38;101945.66;20743901;28;20220;-64
2021/03/02 14:22:51;;;;;;;43.27;30.23;;;;;;;9.39;74.72;101972.41;20708990;28;20214;-64
2021/03/02 14:32:51;;;;;;;39.23;29.13;;;;;;;8.58;79.95;101966.06;20721943;28;20481;-62
2021/03/02 14:42:57;;;;;;;41.90;31.47;;;;;;;7.81;81.90;101979.75;20736724;28;20236;-61
2021/03/02 14:53:00;;;;;;;45.80;32.70;;;;;;;7.48;85.74;101995.66;20733353;28;22462;-62
2021/03/02 15:03:01;;;;;;;38.77;29.40;;;;;;;7.04;85.16;102001.13;20736388;28;20224;-64
2021/03/02 15:13:02;;;;;;;44.17;29.93;;;;;;;6.63;86.34;102024.16;20708305;28;21092;-64
2021/03/02 15:23:07;;;;;;;41.30;29.93;;;;;;;6.14;86.89;102018.94;20729965;28;20238;-62
2021/03/02 15:33:12;;;;;;;38.30;27.90;;;;;;;5.74;88.00;102024.91;20709169;28;20266;-63
2021/03/02 15:43:13;;;;;;;44.97;31.83;;;;;;;5.21;89.00;102035.47;20737477;28;20812;-58
2021/03/02 15:53:15;;;;;;;39.73;28.97;;;;;;;4.77;90.76;102046.66;20761837;28;20226;-60
2021/03/02 16:03:25;;;;;;;41.57;29.30;;;;;;;4.49;93.11;102068.13;20776421;28;20214;-61
2021/03/02 16:13:25;;;;;;;43.40;29.07;;;;;;;4.12;94.63;102058.84;20789558;28;20231;-61
2021/03/02 16:23:29;;;;;;;45.17;30.03;;;;;;;3.76;97.09;102074.13;20783446;28;20688;-65
2021/03/02 16:33:30;;;;;;;47.33;32.33;;;;;;;3.45;98.26;102077.91;20793222;28;20225;-60
2021/03/02 16:43:31;;;;;;;44.53;31.30;;;;;;;3.17;99.79;102070.16;20805345;28;20224;-60
2021/03/02 16:53:32;;;;;;;47.17;32.40;;;;;;;2.99;100.00;102078.19;20822004;28;20755;-59
2021/03/02 17:03:53;;;;;;;42.93;28.20;;;;;;;2.96;100.00;102082.59;20803383;28;20683;-61
2021/03/02 17:13:54;;;;;;;49.67;34.30;;;;;;;2.61;100.00;102070.44;20796115;28;20662;-66
2021/03/02 17:24:00;;;;;;;47.70;33.70;;;;;;;2.64;100.00;102101.19;20747351;28;20671;-66
2021/03/02 17:34:01;;;;;;;55.03;35.53;;;;;;;2.53;100.00;102103.84;20788027;28;20331;-67
2021/03/02 17:44:09;;;;;;;46.43;31.87;;;;;;;2.26;100.00;102093.38;20769425;28;20228;-67
2021/03/02 17:54:10;;;;;;;43.67;29.73;;;;;;;1.97;100.00;102101.28;20776118;28;20299;-66
2021/03/02 18:04:10;;;;;;;37.07;25.07;;;;;;;1.69;100.00;102096.03;20836072;28;20273;-67
2021/03/02 18:14:12;;;;;;;41.37;27.97;;;;;;;1.45;100.00;102101.25;20803325;28;20228;-67
2021/03/02 18:24:13;;;;;;;36.40;23.53;;;;;;;1.32;100.00;102124.06;20853052;28;20223;-67
2021/03/02 18:34:13;;;;;;;33.90;22.37;;;;;;;0.96;100.00;102102.91;20837145;28;20220;-70
2021/03/02 18:44:15;;;;;;;41.17;26.35;;;;;;;1.02;100.00;102137.97;20802484;28;20216;-67
2021/03/02 18:54:16;;;;;;;35.57;24.60;;;;;;;0.98;100.00;102115.16;20781127;28;20232;-68
2021/03/02 19:04:16;;;;;;;34.70;23.23;;;;;;;0.86;100.00;102125.63;20780137;28;20708;-67
2021/03/02 19:14:17;;;;;;;30.87;20.37;;;;;;;0.78;100.00;102137.84;20772497;28;20315;-68
2021/03/02 19:24:17;;;;;;;25.52;16.92;;;;;;;0.45;100.00;102116.66;20770565;28;20274;-70
2021/03/02 19:34:18;;;;;;;29.67;18.47;;;;;;;0.34;100.00;102130.63;20727592;28;20262;-65
2021/03/02 19:44:18;;;;;;;61.07;32.80;;;;;;;0.00;100.00;102118.13;20712757;28;20646;-68
2021/03/02 19:54:19;;;;;;;50.47;30.87;;;;;;;0.07;100.00;102134.78;20727975;28;21023;-68
2021/03/02 20:04:19;;;;;;;64.23;35.90;;;;;;;0.08;100.00;102147.91;20704385;28;21551;-65
2021/03/02 20:14:20;;;;;;;84.77;47.23;;;;;;;0.04;100.00;102134.75;20691384;28;20360;-60
2021/03/02 20:24:20;;;;;;;68.43;38.63;;;;;;;-0.10;100.00;102142.50;20714883;28;20212;-68
2021/03/02 20:34:21;;;;;;;58.07;32.40;;;;;;;-0.29;100.00;102098.63;20735356;28;20510;-65
2021/03/02 20:44:22;;;;;;;74.10;40.67;;;;;;;-0.20;100.00;102140.66;20711238;28;20227;-62
2021/03/02 20:54:22;;;;;;;70.43;37.47;;;;;;;-0.37;100.00;102137.91;20708438;28;20239;-60
2021/03/02 21:04:32;;;;;;;117.65;54.33;;;;;;;-0.45;100.00;102161.41;20733109;28;20224;-63
2021/03/02 21:14:33;;;;;;;89.20;46.57;;;;;;;-0.59;100.00;102152.53;20734806;28;20231;-62
2021/03/02 21:24:33;;;;;;;75.57;40.30;;;;;;;-0.58;100.00;102159.53;20751502;28;20853;-61
2021/03/02 21:34:34;;;;;;;95.65;47.67;;;;;;;-0.48;100.00;102176.22;20731428;28;20306;-63
2021/03/02 21:44:34;;;;;;;71.03;38.30;;;;;;;-0.43;100.00;102164.94;20749503;28;20241;-64
2021/03/02 21:54:35;;;;;;;60.27;33.47;;;;;;;-0.45;100.00;102166.66;20706139;28;20235;-64
2021/03/02 22:04:35;;;;;;;77.50;40.43;;;;;;;-0.56;100.00;102155.19;20744479;28;20231;-69
2021/03/02 22:14:43;;;;;;;74.90;37.30;;;;;;;-0.55;100.00;102162.19;20774038;28;20471;-63
2021/03/02 22:24:44;;;;;;;62.17;34.93;;;;;;;-0.85;100.00;102135.66;20768108;28;21047;-63
2021/03/02 22:34:44;;;;;;;62.28;32.72;;;;;;;-0.82;100.00;102161.88;20798958;28;20220;-64
2021/03/02 22:44:45;;;;;;;71.93;39.90;;;;;;;-0.80;100.00;102131.31;20753568;28;20301;-62
2021/03/02 22:54:45;;;;;;;74.17;40.13;;;;;;;-0.81;100.00;102119.97;20801566;28;20286;-69
2021/03/02 23:04:46;;;;;;;79.93;43.63;;;;;;;-0.65;100.00;102126.25;20762768;28;20475;-72
2021/03/02 23:14:46;;;;;;;65.17;36.43;;;;;;;-0.62;100.00;102110.56;20788721;28;20691;-68
2021/03/02 23:24:47;;;;;;;76.32;42.75;;;;;;;-0.14;100.00;102131.13;20688032;28;20217;-65
2021/03/02 23:34:47;;;;;;;67.40;37.93;;;;;;;0.14;100.00;102141.81;20789932;28;20320;-67
2021/03/02 23:44:48;;;;;;;55.95;34.00;;;;;;;0.24;100.00;102139.28;20770027;28;20229;-66
2021/03/02 23:54:48;;;;;;;47.97;29.70;;;;;;;0.45;100.00;102148.19;20743021;28;20232;-68
